createdAt,value
2018-04-12T00:01:16.773Z,4.83
2018-04-12T00:02:44.104Z,4.82
2018-04-12T00:04:11.272Z,4.82
2018-04-12T00:05:37.663Z,4.82
2018-04-12T00:07:05.855Z,4.83
2018-04-12T00:08:33.171Z,4.82
2018-04-12T00:10:00.359Z,4.82
2018-04-12T00:11:26.679Z,4.81
2018-04-12T00:12:54.940Z,4.82
2018-04-12T00:14:22.193Z,4.82
2018-04-12T00:15:48.609Z,4.82
2018-04-12T00:17:15.765Z,4.82
2018-04-12T00:18:42.642Z,4.82
2018-04-12T00:20:09.742Z,4.81
2018-04-12T00:21:37.002Z,4.81
2018-04-12T00:23:04.120Z,4.81
2018-04-12T00:24:31.200Z,4.80
2018-04-12T00:25:58.472Z,4.80
2018-04-12T00:27:25.654Z,4.80
2018-04-12T00:28:52.809Z,4.80
2018-04-12T00:30:20.977Z,4.79
2018-04-12T00:31:47.323Z,4.78
2018-04-12T00:33:14.437Z,4.78
2018-04-12T00:34:42.539Z,4.78
2018-04-12T00:36:09.723Z,4.78
2018-04-12T00:37:36.926Z,4.77
2018-04-12T00:39:03.209Z,4.76
2018-04-12T00:40:31.264Z,4.75
2018-04-12T00:41:58.278Z,4.74
2018-04-12T00:43:25.535Z,4.74
2018-04-12T00:44:52.622Z,4.73
2018-04-12T00:46:19.865Z,4.74
2018-04-12T00:47:45.906Z,4.73
2018-04-12T00:49:13.949Z,4.73
2018-04-12T00:50:40.128Z,4.72
2018-04-12T00:52:07.514Z,4.74
2018-04-12T00:53:35.427Z,4.75
2018-04-12T00:55:01.717Z,4.75
2018-04-12T00:56:28.683Z,4.75
2018-04-12T00:57:56.852Z,4.75
2018-04-12T00:59:23.100Z,4.76
2018-04-12T01:00:50.237Z,4.76
2018-04-12T01:02:17.365Z,4.75
2018-04-12T01:03:44.506Z,4.75
2018-04-12T01:05:11.722Z,4.74
2018-04-12T01:06:38.732Z,4.75
2018-04-12T01:08:05.697Z,4.75
2018-04-12T01:09:32.933Z,4.76
2018-04-12T01:11:00.106Z,4.76
2018-04-12T01:12:27.268Z,4.76
2018-04-12T01:13:55.333Z,4.78
2018-04-12T01:15:21.604Z,4.79
2018-04-12T01:16:48.594Z,4.79
2018-04-12T01:18:22.692Z,4.80
2018-04-12T01:19:42.899Z,4.79
2018-04-12T01:21:10.090Z,4.80
2018-04-12T01:22:37.241Z,4.80
2018-04-12T01:24:04.424Z,4.81
2018-04-12T01:25:32.656Z,4.80
2018-04-12T01:26:59.883Z,4.80
2018-04-12T01:28:26.684Z,4.80
2018-04-12T01:29:52.500Z,4.80
2018-04-12T01:31:20.602Z,4.80
2018-04-12T01:32:47.863Z,4.80
2018-04-12T01:34:14.006Z,4.80
2018-04-12T01:35:41.170Z,4.79
2018-04-12T01:37:08.380Z,4.79
2018-04-12T01:38:36.839Z,4.78
2018-04-12T01:40:03.173Z,4.78
2018-04-12T01:41:31.313Z,4.79
2018-04-12T01:42:58.568Z,4.79
2018-04-12T01:44:24.608Z,4.78
2018-04-12T01:45:52.730Z,4.79
2018-04-12T01:47:18.956Z,4.80
2018-04-12T01:48:47.013Z,4.80
2018-04-12T01:50:13.082Z,4.78
2018-04-12T01:51:40.299Z,4.78
2018-04-12T01:53:07.481Z,4.78
2018-04-12T01:54:34.856Z,4.78
2018-04-12T01:56:03.191Z,4.77
2018-04-12T01:57:30.376Z,4.77
2018-04-12T01:58:57.611Z,4.77
2018-04-12T02:00:24.772Z,4.77
2018-04-12T02:01:51.992Z,4.77
2018-04-12T02:03:19.118Z,4.77
2018-04-12T02:04:46.148Z,4.77
2018-04-12T02:06:13.278Z,4.77
2018-04-12T02:07:40.257Z,4.77
2018-04-12T02:09:07.414Z,4.79
2018-04-12T02:10:33.736Z,4.79
2018-04-12T02:12:01.040Z,4.80
2018-04-12T02:13:28.211Z,4.81
2018-04-12T02:14:56.259Z,4.83
2018-04-12T02:16:23.590Z,4.83
2018-04-12T02:17:50.763Z,4.82
2018-04-12T02:19:17.906Z,4.81
2018-04-12T02:20:44.153Z,4.81
2018-04-12T02:22:12.310Z,4.80
2018-04-12T02:23:39.397Z,4.81
2018-04-12T02:25:06.703Z,4.82
2018-04-12T02:26:33.997Z,4.82
2018-04-12T02:28:01.198Z,4.83
2018-04-12T02:29:28.391Z,4.83
2018-04-12T02:30:55.736Z,4.85
2018-04-12T02:32:22.071Z,4.84
2018-04-12T02:33:50.153Z,4.86
2018-04-12T02:35:17.358Z,4.87
2018-04-12T02:36:44.444Z,4.87
2018-04-12T02:38:10.796Z,4.88
2018-04-12T02:39:38.835Z,4.89
2018-04-12T02:41:06.078Z,4.90
2018-04-12T02:42:33.460Z,4.91
2018-04-12T02:44:00.820Z,4.91
2018-04-12T02:45:26.874Z,4.92
2018-04-12T02:46:55.243Z,4.92
2018-04-12T02:48:22.419Z,4.93
2018-04-12T02:49:49.551Z,4.93
2018-04-12T02:51:15.885Z,4.93
2018-04-12T02:52:42.975Z,4.92
2018-04-12T02:54:11.061Z,4.93
2018-04-12T02:55:38.359Z,4.94
2018-04-12T02:57:05.507Z,4.95
2018-04-12T02:58:31.914Z,4.97
2018-04-12T02:59:58.925Z,4.98
2018-04-12T03:01:26.205Z,4.99
2018-04-12T03:02:53.492Z,4.98
2018-04-12T03:04:20.890Z,4.97
2018-04-12T03:05:49.035Z,4.98
2018-04-12T03:07:16.147Z,4.98
2018-04-12T03:08:43.325Z,4.99
2018-04-12T03:10:10.545Z,5.00
2018-04-12T03:11:37.875Z,5.01
2018-04-12T03:13:05.004Z,5.02
2018-04-12T03:14:31.147Z,5.04
2018-04-12T03:15:58.400Z,5.05
2018-04-12T03:17:26.533Z,5.06
2018-04-12T03:18:53.704Z,5.07
2018-04-12T03:20:20.982Z,5.08
2018-04-12T03:21:47.209Z,5.08
2018-04-12T03:23:14.447Z,5.09
2018-04-12T03:24:41.591Z,5.10
2018-04-12T03:26:09.834Z,5.10
2018-04-12T03:27:36.143Z,5.08
2018-04-12T03:29:03.472Z,5.07
2018-04-12T03:30:31.755Z,5.06
2018-04-12T03:31:57.818Z,5.05
2018-04-12T03:33:25.892Z,5.05
2018-04-12T03:34:52.110Z,5.06
2018-04-12T03:36:19.216Z,5.07
2018-04-12T03:37:46.496Z,5.08
2018-04-12T03:39:14.630Z,5.09
2018-04-12T03:40:41.871Z,5.10
2018-04-12T03:42:07.858Z,5.11
2018-04-12T03:43:36.141Z,5.12
2018-04-12T03:45:02.493Z,5.14
2018-04-12T03:46:29.859Z,5.14
2018-04-12T03:47:57.083Z,5.15
2018-04-12T03:49:24.300Z,5.15
2018-04-12T03:50:52.352Z,5.16
2018-04-12T03:52:18.490Z,5.17
2018-04-12T03:53:46.660Z,5.19
2018-04-12T03:55:13.679Z,5.20
2018-04-12T03:56:40.713Z,5.21
2018-04-12T03:58:07.023Z,5.23
2018-04-12T04:01:01.302Z,5.24
2018-04-12T04:02:28.548Z,5.25
2018-04-12T04:03:55.818Z,5.28
2018-04-12T04:05:24.079Z,5.28
2018-04-12T04:06:51.453Z,5.29
2018-04-12T04:08:18.609Z,5.29
2018-04-12T04:09:44.831Z,5.30
2018-04-12T04:11:13.128Z,5.31
2018-04-12T04:12:39.281Z,5.32
2018-04-12T04:14:07.406Z,5.34
2018-04-12T04:15:34.501Z,5.35
2018-04-12T04:17:00.855Z,5.35
2018-04-12T04:18:28.041Z,5.34
2018-04-12T04:19:56.286Z,5.35
2018-04-12T04:21:22.560Z,5.35
2018-04-12T04:22:50.817Z,5.35
2018-04-12T04:24:18.010Z,5.36
2018-04-12T04:25:45.351Z,5.37
2018-04-12T04:27:12.498Z,5.37
2018-04-12T04:28:38.569Z,5.38
2018-04-12T04:30:05.907Z,5.40
2018-04-12T04:31:33.084Z,5.41
2018-04-12T04:33:00.159Z,5.42
2018-04-12T04:34:28.401Z,5.43
2018-04-12T04:35:55.603Z,5.45
2018-04-12T04:37:22.891Z,5.46
2018-04-12T04:38:49.188Z,5.48
2018-04-12T04:40:16.364Z,5.49
2018-04-12T04:41:44.648Z,5.50
2018-04-12T04:43:10.798Z,5.52
2018-04-12T04:44:37.794Z,5.54
2018-04-12T04:46:04.996Z,5.55
2018-04-12T04:47:32.315Z,5.57
2018-04-12T04:48:59.683Z,5.59
2018-04-12T04:50:26.953Z,5.61
2018-04-12T04:51:53.986Z,5.63
2018-04-12T04:53:21.190Z,5.64
2018-04-12T04:54:48.432Z,5.66
2018-04-12T04:56:15.468Z,5.67
2018-04-12T04:57:42.532Z,5.70
2018-04-12T04:59:09.611Z,5.72
2018-04-12T05:00:37.831Z,5.75
2018-04-12T05:02:05.166Z,5.78
2018-04-12T05:03:31.469Z,5.80
2018-04-12T05:04:58.842Z,5.83
2018-04-12T05:06:26.786Z,5.85
2018-04-12T05:07:53.906Z,5.88
2018-04-12T05:09:21.171Z,5.91
2018-04-12T05:10:48.510Z,5.95
2018-04-12T05:12:15.775Z,5.98
2018-04-12T05:13:42.010Z,6.00
2018-04-12T05:15:09.430Z,6.04
2018-04-12T05:16:37.592Z,6.08
2018-04-12T05:18:04.717Z,6.11
2018-04-12T05:19:30.987Z,6.15
2018-04-12T05:20:59.322Z,6.18
2018-04-12T05:22:25.570Z,6.20
2018-04-12T05:23:52.823Z,6.24
2018-04-12T05:25:20.025Z,6.27
2018-04-12T05:26:47.294Z,6.32
2018-04-12T05:28:14.462Z,6.36
2018-04-12T05:29:42.851Z,6.41
2018-04-12T05:31:09.027Z,6.45
2018-04-12T05:32:37.302Z,6.49
2018-04-12T05:34:04.605Z,6.54
2018-04-12T05:35:30.921Z,6.59
2018-04-12T05:36:59.217Z,6.64
2018-04-12T05:38:25.463Z,6.71
2018-04-12T05:39:52.613Z,6.78
2018-04-12T05:41:20.919Z,6.87
2018-04-12T05:42:48.069Z,6.95
2018-04-12T05:44:14.284Z,7.06
2018-04-12T05:45:42.580Z,7.17
2018-04-12T05:47:08.086Z,7.28
2018-04-12T05:48:35.437Z,7.39
2018-04-12T05:50:03.743Z,7.54
2018-04-12T05:51:30.065Z,7.66
2018-04-12T05:52:57.307Z,7.75
2018-04-12T05:54:25.589Z,7.82
2018-04-12T05:55:51.921Z,7.88
2018-04-12T05:57:19.079Z,7.92
2018-04-12T05:58:47.499Z,7.94
2018-04-12T06:00:13.619Z,7.94
2018-04-12T06:01:40.947Z,7.96
2018-04-12T06:03:08.028Z,8.03
2018-04-12T06:04:34.963Z,8.04
2018-04-12T06:06:03.237Z,8.06
2018-04-12T06:07:29.438Z,8.09
2018-04-12T06:08:57.814Z,8.13
2018-04-12T06:10:24.065Z,8.19
2018-04-12T06:11:52.153Z,8.24
2018-04-12T06:13:19.302Z,8.27
2018-04-12T06:14:45.656Z,8.29
2018-04-12T06:16:12.892Z,8.33
2018-04-12T06:17:40.018Z,8.36
2018-04-12T06:19:07.301Z,8.39
2018-04-12T06:20:35.512Z,8.42
2018-04-12T06:22:01.771Z,8.45
2018-04-12T06:23:29.083Z,8.50
2018-04-12T06:24:57.515Z,8.54
2018-04-12T06:26:23.472Z,8.57
2018-04-12T06:27:50.827Z,8.59
2018-04-12T06:29:19.186Z,8.63
2018-04-12T06:30:45.431Z,8.65
2018-04-12T06:32:13.700Z,8.68
2018-04-12T06:33:41.023Z,8.69
2018-04-12T06:35:08.284Z,8.71
2018-04-12T06:36:34.698Z,8.75
2018-04-12T06:38:01.977Z,8.79
2018-04-12T06:39:29.257Z,8.84
2018-04-12T06:40:56.617Z,8.89
2018-04-12T06:42:24.006Z,8.94
2018-04-12T06:43:51.300Z,8.99
2018-04-12T06:45:18.530Z,8.99
2018-04-12T06:46:46.656Z,8.99
2018-04-12T06:48:18.852Z,9.03
2018-04-12T06:49:39.995Z,9.09
2018-04-12T06:51:07.517Z,9.14
2018-04-12T06:52:35.044Z,9.19
2018-04-12T06:54:02.587Z,9.20
2018-04-12T06:55:30.813Z,9.20
2018-04-12T06:56:56.915Z,9.22
2018-04-12T06:58:25.235Z,9.22
2018-04-12T06:59:52.146Z,9.21
2018-04-12T07:01:18.296Z,9.23
2018-04-12T07:02:46.479Z,9.23
2018-04-12T07:04:12.937Z,9.27
2018-04-12T07:05:41.177Z,9.27
2018-04-12T07:07:07.428Z,9.25
2018-04-12T07:08:35.754Z,9.24
2018-04-12T07:10:02.034Z,9.24
2018-04-12T07:11:30.139Z,9.24
2018-04-12T07:12:57.366Z,9.26
2018-04-12T07:14:23.588Z,9.31
2018-04-12T07:15:51.919Z,9.32
2018-04-12T07:17:18.148Z,9.35
2018-04-12T07:18:45.096Z,9.38
2018-04-12T07:20:13.135Z,9.45
2018-04-12T07:21:39.239Z,9.47
2018-04-12T07:23:06.539Z,9.47
2018-04-12T07:24:34.492Z,9.54
2018-04-12T07:26:01.018Z,9.60
2018-04-12T07:27:29.226Z,9.59
2018-04-12T07:28:55.286Z,9.58
2018-04-12T07:30:22.310Z,9.60
2018-04-12T07:31:49.426Z,9.65
2018-04-12T07:33:16.372Z,9.72
2018-04-12T07:34:44.385Z,9.75
2018-04-12T07:36:10.598Z,9.83
2018-04-12T07:37:37.709Z,9.88
2018-04-12T07:39:04.807Z,9.90
2018-04-12T07:40:31.622Z,9.94
2018-04-12T07:41:59.933Z,9.97
2018-04-12T07:43:26.201Z,10.03
2018-04-12T07:44:53.450Z,10.07
2018-04-12T07:46:20.443Z,10.14
2018-04-12T07:47:48.682Z,10.20
2018-04-12T07:49:15.748Z,10.24
2018-04-12T07:50:42.015Z,10.25
2018-04-12T07:52:09.348Z,10.28
2018-04-12T07:53:36.398Z,10.36
2018-04-12T07:55:03.715Z,10.38
2018-04-12T07:56:30.956Z,10.43
2018-04-12T07:57:58.385Z,10.45
2018-04-12T07:59:25.470Z,10.53
2018-04-12T08:00:52.671Z,10.55
2018-04-12T08:02:19.947Z,10.58
2018-04-12T08:03:47.143Z,10.58
2018-04-12T08:05:15.686Z,10.60
2018-04-12T08:06:42.532Z,10.65
2018-04-12T08:08:09.011Z,10.72
2018-04-12T08:09:35.815Z,10.78
2018-04-12T08:11:02.816Z,10.82
2018-04-12T08:12:30.103Z,10.85
2018-04-12T08:13:57.055Z,10.89
2018-04-12T08:15:25.451Z,10.92
2018-04-12T08:16:52.739Z,10.94
2018-04-12T08:18:18.904Z,10.96
2018-04-12T08:19:47.012Z,11.01
2018-04-12T08:21:13.247Z,11.08
2018-04-12T08:22:40.264Z,11.11
2018-04-12T08:24:07.111Z,11.19
2018-04-12T08:25:35.214Z,11.23
2018-04-12T08:27:02.264Z,11.25
2018-04-12T08:28:28.383Z,11.29
2018-04-12T08:29:56.558Z,11.23
2018-04-12T08:31:23.626Z,11.23
2018-04-12T08:32:50.840Z,11.18
2018-04-12T08:34:18.069Z,11.19
2018-04-12T08:35:44.292Z,11.20
2018-04-12T08:37:11.293Z,11.16
2018-04-12T08:38:38.412Z,11.26
2018-04-12T08:40:06.814Z,11.32
2018-04-12T08:41:33.255Z,11.31
2018-04-12T08:43:01.569Z,11.37
2018-04-12T08:44:27.800Z,11.39
2018-04-12T08:45:55.210Z,11.44
2018-04-12T08:47:22.395Z,11.47
2018-04-12T08:48:50.737Z,11.54
2018-04-12T08:50:17.869Z,11.59
2018-04-12T08:51:45.418Z,11.61
2018-04-12T08:53:11.652Z,11.68
2018-04-12T08:54:38.942Z,11.72
2018-04-12T08:56:07.285Z,11.71
2018-04-12T08:57:33.649Z,11.75
2018-04-12T08:59:01.091Z,11.74
2018-04-12T09:00:28.374Z,11.81
2018-04-12T09:01:56.982Z,11.89
2018-04-12T09:03:23.307Z,12.01
2018-04-12T09:04:51.532Z,12.07
2018-04-12T09:06:19.033Z,12.10
2018-04-12T09:07:45.201Z,12.16
2018-04-12T09:09:13.545Z,12.31
2018-04-12T09:10:40.839Z,12.45
2018-04-12T09:12:07.265Z,12.56
2018-04-12T09:13:35.684Z,12.62
2018-04-12T09:15:02.943Z,12.64
2018-04-12T09:16:29.310Z,12.68
2018-04-12T09:17:56.711Z,12.73
2018-04-12T09:19:24.022Z,12.76
2018-04-12T09:20:51.126Z,12.80
2018-04-12T09:22:18.254Z,12.88
2018-04-12T09:23:45.474Z,12.91
2018-04-12T09:25:12.953Z,12.87
2018-04-12T09:26:41.080Z,12.88
2018-04-12T09:28:08.277Z,12.92
2018-04-12T09:29:34.824Z,12.91
2018-04-12T09:31:02.136Z,12.90
2018-04-12T09:32:30.549Z,12.88
2018-04-12T09:33:57.036Z,12.90
2018-04-12T09:35:25.527Z,12.95
2018-04-12T09:36:52.763Z,13.03
2018-04-12T09:38:19.035Z,13.14
2018-04-12T09:39:46.315Z,13.24
2018-04-12T09:41:13.905Z,13.30
2018-04-12T09:42:42.080Z,13.37
2018-04-12T09:44:09.386Z,13.45
2018-04-12T09:45:35.475Z,13.50
2018-04-12T09:47:02.932Z,13.53
2018-04-12T09:48:31.284Z,13.54
2018-04-12T09:49:58.604Z,13.52
2018-04-12T09:51:25.066Z,13.59
2018-04-12T09:52:53.253Z,13.58
2018-04-12T09:54:19.413Z,13.54
2018-04-12T09:55:46.635Z,13.44
2018-04-12T09:57:14.166Z,13.54
2018-04-12T09:58:42.319Z,13.67
2018-04-12T10:00:08.582Z,13.80
2018-04-12T10:01:36.675Z,13.88
2018-04-12T10:03:03.112Z,13.93
2018-04-12T10:04:30.499Z,13.85
2018-04-12T10:05:58.927Z,13.90
2018-04-12T10:07:26.291Z,13.92
2018-04-12T10:08:52.793Z,13.96
2018-04-12T10:10:20.100Z,13.93
2018-04-12T10:11:47.536Z,14.00
2018-04-12T10:13:14.755Z,13.93
2018-04-12T10:14:41.883Z,13.94
2018-04-12T10:16:10.217Z,13.92
2018-04-12T10:17:36.741Z,13.92
2018-04-12T10:19:03.984Z,13.90
2018-04-12T10:20:32.411Z,13.84
2018-04-12T10:21:59.757Z,13.73
2018-04-12T10:23:26.061Z,13.63
2018-04-12T10:24:54.460Z,13.50
2018-04-12T10:26:21.674Z,13.37
2018-04-12T10:27:48.778Z,13.24
2018-04-12T10:29:14.964Z,13.21
2018-04-12T10:30:43.342Z,13.16
2018-04-12T10:32:09.645Z,13.26
2018-04-12T10:33:37.140Z,13.41
2018-04-12T10:35:05.512Z,13.56
2018-04-12T10:36:31.935Z,13.69
2018-04-12T10:38:00.281Z,13.81
2018-04-12T10:39:26.706Z,13.86
2018-04-12T10:40:54.956Z,13.91
2018-04-12T10:42:22.349Z,13.95
2018-04-12T10:43:48.864Z,14.03
2018-04-12T10:45:17.211Z,14.05
2018-04-12T10:46:44.496Z,14.05
2018-04-12T10:48:11.716Z,14.10
2018-04-12T10:49:37.898Z,14.05
2018-04-12T10:51:05.310Z,14.00
2018-04-12T10:52:32.756Z,13.93
2018-04-12T10:54:00.185Z,13.93
2018-04-12T10:55:27.415Z,13.96
2018-04-12T10:56:54.594Z,13.93
2018-04-12T10:58:22.906Z,13.89
2018-04-12T10:59:50.317Z,13.84
2018-04-12T11:01:16.607Z,13.81
2018-04-12T11:02:44.944Z,13.87
2018-04-12T11:04:11.476Z,13.93
2018-04-12T11:05:39.794Z,14.05
2018-04-12T11:07:07.127Z,14.17
2018-04-12T11:08:34.514Z,14.27
2018-04-12T11:10:00.658Z,14.32
2018-04-12T11:11:27.943Z,14.33
2018-04-12T11:12:55.356Z,14.31
2018-04-12T11:14:23.663Z,14.28
2018-04-12T11:15:51.167Z,14.32
2018-04-12T11:17:17.539Z,14.40
2018-04-12T11:18:45.824Z,14.40
2018-04-12T11:20:13.142Z,14.34
2018-04-12T11:21:40.397Z,14.28
2018-04-12T11:23:06.724Z,14.17
2018-04-12T11:24:34.236Z,14.09
2018-04-12T11:26:02.753Z,14.05
2018-04-12T11:27:30.052Z,14.10
2018-04-12T11:28:57.477Z,14.09
2018-04-12T11:30:24.146Z,14.06
2018-04-12T11:31:52.261Z,14.08
2018-04-12T11:33:18.844Z,14.12
2018-04-12T11:34:46.196Z,14.16
2018-04-12T11:36:13.526Z,14.17
2018-04-12T11:37:40.897Z,14.15
2018-04-12T11:39:08.097Z,14.08
2018-04-12T11:40:36.628Z,13.99
2018-04-12T11:42:02.893Z,13.90
2018-04-12T11:43:31.311Z,13.84
2018-04-12T11:44:58.863Z,13.71
2018-04-12T11:46:26.007Z,13.67
2018-04-12T11:47:53.383Z,13.63
2018-04-12T11:49:19.687Z,13.55
2018-04-12T11:50:47.009Z,13.49
2018-04-12T11:52:15.431Z,13.49
2018-04-12T11:53:42.658Z,13.53
2018-04-12T11:55:08.913Z,13.66
2018-04-12T11:56:36.542Z,13.78
2018-04-12T11:58:04.358Z,13.98
2018-04-12T11:59:30.715Z,14.17
2018-04-12T12:00:58.277Z,14.31
2018-04-12T12:02:26.520Z,14.56
2018-04-12T12:03:55.609Z,14.76
2018-04-12T12:05:20.044Z,14.93
2018-04-12T12:06:47.439Z,15.14
2018-04-12T12:08:14.854Z,15.25
2018-04-12T12:09:43.295Z,15.29
2018-04-12T12:11:10.571Z,15.25
2018-04-12T12:12:37.850Z,15.22
2018-04-12T12:14:04.343Z,15.26
2018-04-12T12:15:32.683Z,15.32
2018-04-12T12:17:00.209Z,15.30
2018-04-12T12:18:27.479Z,15.33
2018-04-12T12:19:54.979Z,15.30
2018-04-12T12:21:21.260Z,15.36
2018-04-12T12:22:49.669Z,15.35
2018-04-12T12:24:15.969Z,15.43
2018-04-12T12:25:43.392Z,15.41
2018-04-12T12:27:11.766Z,15.37
2018-04-12T12:28:38.133Z,15.34
2018-04-12T12:30:05.419Z,15.25
2018-04-12T12:31:33.878Z,15.23
2018-04-12T12:33:00.106Z,15.15
2018-04-12T12:34:27.488Z,15.07
2018-04-12T12:35:55.703Z,14.97
2018-04-12T12:37:22.177Z,15.12
2018-04-12T12:38:50.531Z,15.32
2018-04-12T12:40:17.808Z,15.38
2018-04-12T12:41:44.226Z,15.46
2018-04-12T12:43:11.634Z,15.38
2018-04-12T12:44:39.882Z,15.55
2018-04-12T12:46:06.277Z,15.48
2018-04-12T12:47:33.625Z,15.30
2018-04-12T12:49:01.050Z,15.21
2018-04-12T12:50:28.471Z,15.24
2018-04-12T12:51:55.857Z,15.25
2018-04-12T12:53:24.355Z,15.18
2018-04-12T12:54:50.706Z,14.95
2018-04-12T12:56:18.877Z,14.76
2018-04-12T12:57:45.285Z,14.62
2018-04-12T12:59:12.522Z,14.43
2018-04-12T13:00:39.808Z,14.26
2018-04-12T13:02:07.162Z,14.15
2018-04-12T13:03:34.568Z,14.13
2018-04-12T13:05:02.043Z,14.07
2018-04-12T13:06:29.501Z,13.95
2018-04-12T13:07:57.911Z,13.87
2018-04-12T13:09:25.153Z,13.85
2018-04-12T13:10:52.490Z,13.76
2018-04-12T13:12:18.934Z,13.70
2018-04-12T13:13:46.297Z,13.68
2018-04-12T13:15:13.594Z,13.64
2018-04-12T13:16:41.812Z,13.62
2018-04-12T13:18:08.888Z,13.59
2018-04-12T13:19:35.161Z,13.54
2018-04-12T13:21:02.610Z,13.45
2018-04-12T13:22:29.912Z,13.36
2018-04-12T13:23:57.260Z,13.28
2018-04-12T13:25:24.476Z,13.25
2018-04-12T13:26:52.784Z,13.25
2018-04-12T13:28:20.106Z,13.28
2018-04-12T13:29:47.519Z,13.32
2018-04-12T13:31:13.964Z,13.38
2018-04-12T13:32:42.366Z,13.39
2018-04-12T13:34:09.413Z,13.41
2018-04-12T13:35:38.772Z,13.50
2018-04-12T13:37:03.974Z,13.66
2018-04-12T13:38:31.297Z,13.85
2018-04-12T13:39:57.514Z,13.95
2018-04-12T13:41:24.901Z,13.95
2018-04-12T13:42:53.358Z,13.86
2018-04-12T13:44:19.798Z,13.83
2018-04-12T13:45:48.190Z,13.80
2018-04-12T13:47:15.598Z,13.74
2018-04-12T13:48:41.871Z,13.66
2018-04-12T13:50:09.215Z,13.62
2018-04-12T13:51:37.765Z,13.56
2018-04-12T13:53:04.914Z,13.51
2018-04-12T13:54:31.062Z,13.46
2018-04-12T13:55:59.419Z,13.40
2018-04-12T13:57:25.513Z,13.32
2018-04-12T13:58:53.849Z,13.23
2018-04-12T14:00:21.053Z,13.19
2018-04-12T14:01:47.449Z,13.13
2018-04-12T14:03:15.568Z,13.09
2018-04-12T14:04:41.873Z,13.06
2018-04-12T14:06:09.158Z,13.00
2018-04-12T14:07:37.563Z,12.92
2018-04-12T14:09:03.972Z,12.87
2018-04-12T14:10:32.345Z,12.79
2018-04-12T14:11:58.782Z,12.73
2018-04-12T14:13:27.190Z,12.65
2018-04-12T14:14:54.622Z,12.63
2018-04-12T14:16:21.060Z,12.62
2018-04-12T14:17:48.377Z,12.61
2018-04-12T14:19:15.846Z,12.64
2018-04-12T14:20:43.143Z,12.68
2018-04-12T14:22:10.364Z,12.68
2018-04-12T14:23:37.974Z,12.70
2018-04-12T14:25:05.411Z,12.70
2018-04-12T14:26:33.783Z,12.71
2018-04-12T14:28:01.195Z,12.71
2018-04-12T14:29:27.467Z,12.71
2018-04-12T14:30:55.769Z,12.72
2018-04-12T14:32:23.198Z,12.73
2018-04-12T14:33:50.436Z,12.77
2018-04-12T14:35:17.680Z,12.79
2018-04-12T14:36:45.029Z,12.84
2018-04-12T14:38:12.195Z,12.87
2018-04-12T14:39:38.517Z,12.87
2018-04-12T14:41:05.883Z,12.90
2018-04-12T14:42:34.278Z,12.92
2018-04-12T14:44:00.500Z,12.97
2018-04-12T14:45:27.609Z,12.97
2018-04-12T14:46:56.050Z,13.02
2018-04-12T14:48:22.232Z,13.11
2018-04-12T14:49:50.558Z,13.16
2018-04-12T14:51:17.864Z,13.16
2018-04-12T14:52:44.307Z,13.15
2018-04-12T14:54:19.010Z,13.14
2018-04-12T14:55:38.918Z,13.00
2018-04-12T14:57:07.039Z,12.91
2018-04-12T14:58:33.308Z,12.84
2018-04-12T15:00:00.881Z,12.78
2018-04-12T15:01:29.110Z,12.75
2018-04-12T15:02:55.546Z,12.70
2018-04-12T15:04:22.992Z,12.62
2018-04-12T15:05:51.316Z,12.58
2018-04-12T15:07:17.459Z,12.53
2018-04-12T15:08:44.550Z,12.51
2018-04-12T15:10:12.814Z,12.51
2018-04-12T15:11:39.935Z,12.50
2018-04-12T15:13:07.410Z,12.45
2018-04-12T15:14:33.866Z,12.41
2018-04-12T15:16:01.107Z,12.36
2018-04-12T15:17:28.623Z,12.31
2018-04-12T15:18:56.956Z,12.24
2018-04-12T15:20:23.325Z,12.19
2018-04-12T15:21:50.757Z,12.15
2018-04-12T15:23:18.186Z,12.10
2018-04-12T15:24:46.342Z,12.08
2018-04-12T15:26:13.683Z,12.07
2018-04-12T15:27:40.886Z,12.06
2018-04-12T15:29:07.256Z,12.04
2018-04-12T15:30:34.432Z,12.00
2018-04-12T15:32:01.937Z,11.99
2018-04-12T15:33:30.121Z,11.96
2018-04-12T15:34:57.357Z,11.95
2018-04-12T15:36:23.452Z,11.92
2018-04-12T15:37:50.893Z,11.92
2018-04-12T15:39:19.264Z,11.92
2018-04-12T15:40:45.723Z,11.95
2018-04-12T15:42:13.051Z,11.98
2018-04-12T15:43:41.315Z,11.99
2018-04-12T15:45:07.534Z,11.99
2018-04-12T15:46:35.870Z,11.98
2018-04-12T15:48:02.274Z,11.99
2018-04-12T15:49:30.644Z,12.00
2018-04-12T15:50:57.009Z,12.01
2018-04-12T15:52:25.242Z,12.01
2018-04-12T15:53:51.335Z,11.98
2018-04-12T15:55:18.546Z,11.96
2018-04-12T15:56:45.762Z,11.95
2018-04-12T15:58:13.085Z,11.93
2018-04-12T15:59:40.502Z,11.93
2018-04-12T16:01:08.053Z,11.94
2018-04-12T16:02:36.392Z,11.90
2018-04-12T16:04:02.580Z,11.86
2018-04-12T16:05:29.939Z,11.84
2018-04-12T16:06:57.392Z,11.82
2018-04-12T16:08:24.702Z,11.80
2018-04-12T16:09:52.112Z,11.80
2018-04-12T16:11:20.489Z,11.78
2018-04-12T16:12:46.817Z,11.77
2018-04-12T16:14:14.212Z,11.78
2018-04-12T16:15:41.432Z,11.79
2018-04-12T16:17:08.588Z,11.82
2018-04-12T16:18:36.860Z,11.85
2018-04-12T16:20:03.359Z,11.86
2018-04-12T16:21:30.308Z,11.86
2018-04-12T16:22:57.629Z,11.79
2018-04-12T16:24:25.963Z,11.74
2018-04-12T16:25:52.378Z,11.69
2018-04-12T16:27:20.802Z,11.68
2018-04-12T16:28:48.088Z,11.65
2018-04-12T16:30:14.310Z,11.63
2018-04-12T16:31:41.567Z,11.61
2018-04-12T16:33:09.745Z,11.60
2018-04-12T16:34:36.059Z,11.59
2018-04-12T16:36:03.441Z,11.56
2018-04-12T16:37:30.827Z,11.50
2018-04-12T16:38:59.195Z,11.46
2018-04-12T16:40:25.380Z,11.42
2018-04-12T16:41:52.736Z,11.37
2018-04-12T16:43:21.097Z,11.32
2018-04-12T16:44:47.386Z,11.25
2018-04-12T16:46:14.781Z,11.20
2018-04-12T16:47:43.137Z,11.17
2018-04-12T16:49:09.315Z,11.14
2018-04-12T16:50:36.584Z,11.12
2018-04-12T16:52:05.020Z,11.09
2018-04-12T16:53:32.451Z,11.07
2018-04-12T16:54:58.792Z,11.06
2018-04-12T16:56:27.243Z,11.06
2018-04-12T16:57:53.468Z,11.06
2018-04-12T16:59:20.746Z,11.04
2018-04-12T17:00:48.122Z,11.03
2018-04-12T17:02:16.477Z,11.01
2018-04-12T17:03:42.811Z,11.00
2018-04-12T17:05:10.835Z,10.98
2018-04-12T17:06:37.274Z,10.94
2018-04-12T17:08:05.555Z,10.91
2018-04-12T17:09:32.881Z,10.86
2018-04-12T17:11:00.187Z,10.83
2018-04-12T17:12:26.558Z,10.78
2018-04-12T17:13:54.997Z,10.72
2018-04-12T17:15:22.116Z,10.67
2018-04-12T17:16:48.403Z,10.60
2018-04-12T17:18:15.833Z,10.57
2018-04-12T17:19:42.992Z,10.55
2018-04-12T17:21:10.189Z,10.53
2018-04-12T17:22:38.611Z,10.52
2018-04-12T17:24:04.741Z,10.49
2018-04-12T17:25:32.084Z,10.48
2018-04-12T17:26:59.237Z,10.46
2018-04-12T17:28:27.492Z,10.41
2018-04-12T17:29:54.874Z,10.34
2018-04-12T17:31:21.238Z,10.30
2018-04-12T17:32:49.427Z,10.26
2018-04-12T17:34:15.545Z,10.22
2018-04-12T17:35:42.682Z,10.16
2018-04-12T17:37:09.978Z,10.12
2018-04-12T17:38:38.362Z,10.07
2018-04-12T17:40:04.728Z,10.02
2018-04-12T17:41:32.141Z,9.99
2018-04-12T17:42:59.499Z,9.94
2018-04-12T17:44:26.800Z,9.89
2018-04-12T17:45:53.939Z,9.85
2018-04-12T17:47:20.973Z,9.81
2018-04-12T17:48:48.283Z,9.77
2018-04-12T17:50:15.453Z,9.72
2018-04-12T17:51:42.628Z,9.69
2018-04-12T17:53:10.236Z,9.63
2018-04-12T17:54:38.525Z,9.59
2018-04-12T17:56:04.860Z,9.55
2018-04-12T17:57:31.990Z,9.50
2018-04-12T17:59:00.295Z,9.48
2018-04-12T18:00:26.662Z,9.47
2018-04-12T18:01:54.992Z,9.43
2018-04-12T18:03:21.347Z,9.42
2018-04-12T18:04:49.760Z,9.39
2018-04-12T18:06:17.026Z,9.37
2018-04-12T18:07:43.164Z,9.36
2018-04-12T18:09:11.330Z,9.32
2018-04-12T18:10:37.659Z,9.30
2018-04-12T18:12:05.066Z,9.28
2018-04-12T18:13:32.246Z,9.27
2018-04-12T18:14:59.655Z,9.25
2018-04-12T18:16:27.968Z,9.22
2018-04-12T18:17:54.251Z,9.18
2018-04-12T18:19:21.447Z,9.18
2018-04-12T18:20:48.861Z,9.17
2018-04-12T18:22:15.980Z,9.14
2018-04-12T18:23:44.310Z,9.12
2018-04-12T18:25:10.278Z,9.10
2018-04-12T18:26:38.541Z,9.08
2018-04-12T18:28:04.876Z,9.06
2018-04-12T18:29:32.319Z,9.04
2018-04-12T18:30:59.646Z,9.02
2018-04-12T18:32:26.905Z,9.01
2018-04-12T18:33:55.100Z,9.01
2018-04-12T18:35:22.308Z,8.99
2018-04-12T18:36:49.511Z,8.98
2018-04-12T18:38:15.912Z,8.98
2018-04-12T18:39:43.901Z,8.96
2018-04-12T18:41:09.996Z,8.94
2018-04-12T18:42:37.431Z,8.93
2018-04-12T18:44:04.594Z,8.91
2018-04-12T18:45:32.000Z,8.90
2018-04-12T18:47:00.284Z,8.89
2018-04-12T18:48:26.568Z,8.89
2018-04-12T18:49:53.772Z,8.89
2018-04-12T18:51:21.155Z,8.87
2018-04-12T18:52:48.495Z,8.87
2018-04-12T18:54:15.778Z,8.86
2018-04-12T18:55:42.911Z,8.84
2018-04-12T18:57:10.173Z,8.81
2018-04-12T18:58:37.349Z,8.82
2018-04-12T19:00:04.741Z,8.80
2018-04-12T19:01:32.047Z,8.80
2018-04-12T19:03:00.245Z,8.78